createdAt,value
2023-01-09T00:00:33.577Z,100464.09
2023-01-09T00:03:35.252Z,100456.00
2023-01-09T00:06:37.501Z,100459.41
2023-01-09T00:09:39.326Z,100451.03
2023-01-09T00:12:41.601Z,100445.00
2023-01-09T00:15:43.495Z,100438.25
2023-01-09T00:18:45.395Z,100436.41
2023-01-09T00:21:47.222Z,100435.53
2023-01-09T00:24:48.853Z,100446.84
2023-01-09T00:27:50.597Z,100439.03
2023-01-09T00:31:00.021Z,100444.78
2023-01-09T00:34:06.155Z,100445.38
2023-01-09T00:37:11.886Z,100438.53
2023-01-09T00:40:15.401Z,100442.28
2023-01-09T00:43:18.577Z,100443.63
2023-01-09T00:46:25.511Z,100441.94
2023-01-09T00:49:35.842Z,100439.19
2023-01-09T00:52:38.812Z,100439.97
2023-01-09T00:55:40.847Z,100445.03
2023-01-09T00:58:43.285Z,100442.41
2023-01-09T01:01:45.186Z,100440.94
2023-01-09T01:05:05.297Z,100436.47
2023-01-09T01:08:11.459Z,100428.59
2023-01-09T01:11:13.604Z,100424.50
2023-01-09T01:14:15.271Z,100421.09
2023-01-09T01:17:17.001Z,100420.28
2023-01-09T01:20:19.303Z,100415.53
2023-01-09T01:23:20.960Z,100416.31
2023-01-09T01:26:22.618Z,100417.97
2023-01-09T01:29:24.341Z,100408.59
2023-01-09T01:32:26.023Z,100405.97
2023-01-09T01:35:27.822Z,100399.22
2023-01-09T01:38:29.905Z,100390.28
2023-01-09T01:41:32.505Z,100390.50
2023-01-09T01:44:55.811Z,100391.75
2023-01-09T01:48:00.192Z,100391.47
2023-01-09T01:51:05.993Z,100386.22
2023-01-09T01:54:14.502Z,100380.47
2023-01-09T01:57:16.489Z,100366.53
2023-01-09T02:00:23.190Z,100361.28
2023-01-09T02:03:27.361Z,100364.50
2023-01-09T02:06:30.476Z,100347.47
2023-01-09T02:09:32.345Z,100354.84
2023-01-09T02:12:34.115Z,100353.28
2023-01-09T02:15:46.253Z,100348.22
2023-01-09T02:19:20.363Z,100341.13
2023-01-09T02:22:30.916Z,100332.69
2023-01-09T02:26:10.237Z,100315.25
2023-01-09T02:29:36.142Z,100306.19
2023-01-09T02:33:06.159Z,100299.28
2023-01-09T02:36:19.023Z,100305.22
2023-01-09T02:39:51.114Z,100318.94
2023-01-09T02:42:57.350Z,100321.84
2023-01-09T02:45:59.295Z,100316.91
2023-01-09T02:49:01.179Z,100315.25
2023-01-09T02:52:11.765Z,100303.38
2023-01-09T02:55:35.274Z,100297.03
2023-01-09T02:58:55.498Z,100308.22
2023-01-09T03:01:59.963Z,100295.78
2023-01-09T03:05:11.403Z,100291.13
2023-01-09T03:08:21.050Z,100286.72
2023-01-09T03:11:28.336Z,100276.00
2023-01-09T03:14:33.492Z,100276.31
2023-01-09T03:17:40.257Z,100290.91
2023-01-09T03:20:42.905Z,100279.50
2023-01-09T03:23:49.547Z,100276.00
2023-01-09T03:26:51.493Z,100266.56
2023-01-09T03:29:53.453Z,100269.47
2023-01-09T03:32:56.190Z,100267.06
2023-01-09T03:35:57.941Z,100257.72
2023-01-09T03:38:59.637Z,100261.91
2023-01-09T03:42:01.435Z,100253.16
2023-01-09T03:45:03.890Z,100249.81
2023-01-09T03:48:05.786Z,100248.78
2023-01-09T03:51:07.446Z,100262.47
2023-01-09T03:54:09.551Z,100255.38
2023-01-09T03:57:11.233Z,100258.97
2023-01-09T04:00:13.524Z,100268.03
2023-01-09T04:03:16.224Z,100265.09
2023-01-09T04:06:18.084Z,100260.63
2023-01-09T04:09:20.057Z,100258.09
2023-01-09T04:12:21.735Z,100259.63
2023-01-09T04:15:23.878Z,100257.72
2023-01-09T04:18:25.629Z,100265.19
2023-01-09T04:21:27.623Z,100263.13
2023-01-09T04:24:29.347Z,100266.91
2023-01-09T04:27:31.240Z,100259.22
2023-01-09T04:30:33.433Z,100263.13
2023-01-09T04:33:35.137Z,100250.66
2023-01-09T04:36:36.848Z,100237.81
2023-01-09T04:39:38.532Z,100226.91
2023-01-09T04:42:41.201Z,100224.00
2023-01-09T04:45:42.900Z,100220.31
2023-01-09T04:48:44.776Z,100215.19
2023-01-09T04:51:47.197Z,100220.22
2023-01-09T04:54:48.931Z,100223.41
2023-01-09T04:57:50.677Z,100214.66
2023-01-09T05:00:52.617Z,100233.03
2023-01-09T05:03:54.336Z,100223.41
2023-01-09T05:06:56.099Z,100223.91
2023-01-09T05:09:57.761Z,100226.81
2023-01-09T05:12:59.455Z,100223.41
2023-01-09T05:16:01.110Z,100234.84
2023-01-09T05:19:03.139Z,100236.22
2023-01-09T05:22:05.117Z,100226.38
2023-01-09T05:25:07.122Z,100217.88
2023-01-09T05:28:08.919Z,100223.75
2023-01-09T05:31:10.784Z,100214.50
2023-01-09T05:34:12.480Z,100214.88
2023-01-09T05:37:14.159Z,100219.81
2023-01-09T05:40:16.074Z,100212.31
2023-01-09T05:43:17.727Z,100210.53
2023-01-09T05:46:19.450Z,100219.47
2023-01-09T05:49:21.157Z,100210.81
2023-01-09T05:52:24.802Z,100207.44
2023-01-09T05:59:29.425Z,100201.94
2023-01-09T06:02:31.435Z,100202.25
2023-01-09T06:05:33.876Z,100197.56
2023-01-09T06:08:35.711Z,100195.09
2023-01-09T06:11:44.250Z,100193.78
2023-01-09T06:14:47.420Z,100193.28
2023-01-09T06:17:49.358Z,100194.91
2023-01-09T06:20:56.447Z,100187.97
2023-01-09T06:23:59.378Z,100186.88
2023-01-09T06:27:01.034Z,100189.16
2023-01-09T06:30:02.982Z,100193.88
2023-01-09T06:33:05.782Z,100189.22
2023-01-09T06:36:07.999Z,100188.84
2023-01-09T06:39:09.735Z,100191.59
2023-01-09T06:42:11.430Z,100196.84
2023-01-09T06:45:13.842Z,100192.00
2023-01-09T06:48:15.701Z,100189.44
2023-01-09T06:51:17.382Z,100168.19
2023-01-09T06:54:19.771Z,100175.75
2023-01-09T06:57:21.527Z,100164.75
2023-01-09T07:00:23.470Z,100175.56
2023-01-09T07:03:25.330Z,100180.84
2023-01-09T07:06:27.484Z,100181.06
2023-01-09T07:09:29.291Z,100176.28
2023-01-09T07:12:31.033Z,100166.84
2023-01-09T07:15:33.595Z,100178.75
2023-01-09T07:18:35.574Z,100176.69
2023-01-09T07:21:38.025Z,100174.53
2023-01-09T07:24:39.823Z,100176.50
2023-01-09T07:27:42.326Z,100177.47
2023-01-09T07:30:44.077Z,100171.34
2023-01-09T07:33:45.777Z,100158.13
2023-01-09T07:36:48.957Z,100159.66
2023-01-09T07:39:51.736Z,100162.41
2023-01-09T07:42:54.006Z,100145.84
2023-01-09T07:45:55.743Z,100150.22
2023-01-09T07:48:57.650Z,100161.78
2023-01-09T07:51:59.336Z,100166.00
2023-01-09T07:55:01.541Z,100159.69
2023-01-09T07:58:03.281Z,100147.50
2023-01-09T08:01:05.128Z,100150.31
2023-01-09T08:04:07.109Z,100148.19
2023-01-09T08:07:08.983Z,100144.41
2023-01-09T08:10:11.533Z,100144.69
2023-01-09T08:13:13.208Z,100143.31
2023-01-09T08:16:15.193Z,100130.28
2023-01-09T08:19:16.866Z,100134.28
2023-01-09T08:22:19.157Z,100133.97
2023-01-09T08:25:21.420Z,100139.22
2023-01-09T08:28:23.190Z,100135.72
2023-01-09T08:31:25.178Z,100143.31
2023-01-09T08:34:27.005Z,100153.34
2023-01-09T08:37:28.779Z,100147.13
2023-01-09T08:40:30.628Z,100144.50
2023-01-09T08:43:50.771Z,100157.31
2023-01-09T08:47:08.529Z,100160.91
2023-01-09T08:50:10.538Z,100157.03
2023-01-09T08:53:12.816Z,100154.69
2023-01-09T08:56:14.446Z,100149.13
2023-01-09T08:59:16.672Z,100155.38
2023-01-09T09:02:18.445Z,100143.88
2023-01-09T09:05:20.827Z,100149.13
2023-01-09T09:08:22.524Z,100151.50
2023-01-09T09:11:24.195Z,100138.44
2023-01-09T09:14:45.128Z,100146.72
2023-01-09T09:18:00.587Z,100146.22
2023-01-09T09:21:02.365Z,100133.78
2023-01-09T09:24:04.160Z,100133.25
2023-01-09T09:27:05.820Z,100127.72
2023-01-09T09:30:09.014Z,100135.09
2023-01-09T09:33:10.797Z,100133.16
2023-01-09T09:36:12.447Z,100121.50
2023-01-09T09:39:15.155Z,100131.13
2023-01-09T09:43:11.043Z,100124.13
2023-01-09T09:46:23.226Z,100118.16
2023-01-09T09:49:33.828Z,100105.63
2023-01-09T09:53:09.433Z,100101.75
2023-01-09T09:56:13.923Z,100093.91
2023-01-09T09:59:27.161Z,100095.06
2023-01-09T10:02:39.542Z,100096.53
2023-01-09T10:05:45.586Z,100085.84
2023-01-09T10:09:09.089Z,100090.00
2023-01-09T10:12:25.260Z,100079.88
2023-01-09T10:15:55.745Z,100068.00
2023-01-09T10:19:06.398Z,100062.38
2023-01-09T10:22:37.218Z,100049.84
2023-01-09T10:25:51.017Z,100061.59
2023-01-09T10:29:11.432Z,100052.47
2023-01-09T10:32:37.880Z,100048.69
2023-01-09T10:35:58.554Z,100035.56
2023-01-09T10:39:08.406Z,100037.47
2023-01-09T10:42:11.289Z,100021.03
2023-01-09T10:45:34.910Z,100020.47
2023-01-09T10:48:45.508Z,100015.31
2023-01-09T10:51:50.414Z,100011.66
2023-01-09T10:54:58.144Z,100019.41
2023-01-09T10:58:04.356Z,99997.91
2023-01-09T11:01:07.814Z,99993.25
2023-01-09T11:04:23.500Z,100004.91
2023-01-09T11:07:30.354Z,99973.28
2023-01-09T11:10:49.586Z,99965.91
2023-01-09T11:14:04.678Z,99968.13
2023-01-09T11:17:16.822Z,99956.63
2023-01-09T11:20:28.152Z,99954.53
2023-01-09T11:23:32.581Z,99938.66
2023-01-09T11:26:35.150Z,99939.97
2023-01-09T11:29:36.839Z,99932.25
2023-01-09T11:32:38.593Z,99931.50
2023-01-09T11:35:54.391Z,99927.78
2023-01-09T11:38:58.669Z,99922.47
2023-01-09T11:42:03.334Z,99919.91
2023-01-09T11:45:05.516Z,99917.34
2023-01-09T11:48:17.883Z,99920.94
2023-01-09T11:51:23.238Z,99912.50
2023-01-09T11:54:28.723Z,99902.88
2023-01-09T11:57:31.374Z,99907.81
2023-01-09T12:00:44.295Z,99906.53
